createdAt,value
2022-10-07T00:00:02.386Z,94.98
2022-10-07T00:01:11.027Z,95.00
2022-10-07T00:02:16.191Z,94.83
2022-10-07T00:03:31.991Z,94.90
2022-10-07T00:04:49.816Z,95.07
2022-10-07T00:06:22.315Z,95.39
2022-10-07T00:07:32.355Z,95.53
2022-10-07T00:08:45.919Z,95.57
2022-10-07T00:09:52.936Z,95.52
2022-10-07T00:11:15.792Z,95.92
2022-10-07T00:12:24.875Z,95.78
2022-10-07T00:13:39.692Z,96.31
2022-10-07T00:14:46.866Z,96.02
2022-10-07T00:15:53.896Z,96.33
2022-10-07T00:16:58.088Z,96.29
2022-10-07T00:18:06.054Z,96.28
2022-10-07T00:19:13.376Z,96.28
2022-10-07T00:20:43.117Z,96.62
2022-10-07T00:21:47.761Z,96.70
2022-10-07T00:22:55.777Z,96.79
2022-10-07T00:24:00.565Z,97.19
2022-10-07T00:25:10.600Z,97.06
2022-10-07T00:26:30.701Z,96.86
2022-10-07T00:27:34.579Z,96.96
2022-10-07T00:28:42.043Z,97.25
2022-10-07T00:29:46.439Z,97.27
2022-10-07T00:31:13.354Z,97.62
2022-10-07T00:32:22.261Z,96.99
2022-10-07T00:33:27.254Z,97.55
2022-10-07T00:34:32.337Z,97.93
2022-10-07T00:35:37.002Z,97.60
2022-10-07T00:36:49.575Z,97.45
2022-10-07T00:38:05.404Z,97.80
2022-10-07T00:39:14.911Z,97.63
2022-10-07T00:40:18.906Z,97.53
2022-10-07T00:41:31.072Z,97.53
2022-10-07T00:43:07.914Z,97.28
2022-10-07T00:44:45.906Z,97.85
2022-10-07T00:45:52.402Z,98.07
2022-10-07T00:47:01.448Z,97.70
2022-10-07T00:48:06.668Z,97.73
2022-10-07T00:49:14.594Z,98.21
2022-10-07T00:50:29.692Z,98.44
2022-10-07T00:51:54.608Z,98.69
2022-10-07T00:53:02.668Z,98.50
2022-10-07T00:54:17.344Z,98.31
2022-10-07T00:55:31.132Z,98.02
2022-10-07T00:56:44.164Z,98.29
2022-10-07T00:57:53.229Z,98.13
2022-10-07T00:59:01.007Z,98.15
2022-10-07T01:00:07.950Z,97.96
2022-10-07T01:01:13.237Z,98.06
2022-10-07T01:02:21.049Z,97.92
2022-10-07T01:03:25.494Z,98.14
2022-10-07T01:04:29.827Z,98.05
2022-10-07T01:05:33.781Z,98.11
2022-10-07T01:06:48.235Z,98.19
2022-10-07T01:07:54.940Z,98.40
2022-10-07T01:09:02.105Z,98.40
2022-10-07T01:10:08.816Z,98.11
2022-10-07T01:11:52.662Z,98.63
2022-10-07T01:13:17.651Z,98.70
2022-10-07T01:14:54.970Z,99.00
2022-10-07T01:18:39.433Z,99.31
2022-10-07T01:19:52.613Z,98.89
2022-10-07T01:21:12.076Z,98.79
2022-10-07T01:22:56.730Z,99.12
2022-10-07T01:24:52.241Z,98.91
2022-10-07T01:26:55.621Z,99.03
2022-10-07T01:28:14.377Z,98.89
2022-10-07T01:29:40.942Z,99.12
2022-10-07T01:31:06.322Z,99.21
2022-10-07T01:32:19.527Z,99.33
2022-10-07T01:33:33.439Z,99.09
2022-10-07T01:34:39.565Z,98.74
2022-10-07T01:35:49.936Z,98.98
2022-10-07T01:37:05.242Z,98.93
2022-10-07T01:38:14.056Z,98.99
2022-10-07T01:39:25.165Z,98.88
2022-10-07T01:40:45.220Z,99.03
2022-10-07T01:41:51.019Z,99.21
2022-10-07T01:42:56.445Z,99.40
2022-10-07T01:44:13.312Z,99.54
2022-10-07T01:45:30.875Z,99.26
2022-10-07T01:46:44.683Z,99.57
2022-10-07T01:47:53.010Z,98.96
2022-10-07T01:48:57.996Z,98.84
2022-10-07T01:50:01.742Z,98.84
2022-10-07T01:51:08.635Z,98.85
2022-10-07T01:52:34.778Z,99.65
2022-10-07T01:54:21.924Z,99.28
2022-10-07T01:56:02.773Z,99.61
2022-10-07T01:57:24.935Z,99.71
2022-10-07T07:18:36.791Z,82.10
2022-10-07T07:20:17.942Z,76.15
2022-10-07T07:21:58.772Z,72.13
2022-10-07T13:20:43.518Z,58.54
2022-10-07T14:11:33.679Z,57.60
2022-10-07T14:13:27.957Z,57.48
2022-10-07T14:20:04.725Z,57.83
2022-10-07T14:21:54.042Z,57.81
2022-10-07T19:54:48.115Z,93.75
2022-10-07T19:57:00.250Z,94.18
2022-10-07T19:58:41.046Z,94.07
2022-10-07T23:52:27.112Z,98.11
